sensor_id;sensor_type;location;lat;lon;timestamp;temperature;humidity
47626;DHT22;33342;45.574;9.252;2022-08-23T00:01:58;28.70;99.90
47626;DHT22;33342;45.574;9.252;2022-08-23T00:04:32;28.70;99.90
47626;DHT22;33342;45.574;9.252;2022-08-23T00:07:03;28.70;99.90
47626;DHT22;33342;45.574;9.252;2022-08-23T00:09:33;28.70;99.90
47626;DHT22;33342;45.574;9.252;2022-08-23T00:12:17;28.70;99.90
47626;DHT22;33342;45.574;9.252;2022-08-23T00:14:51;28.70;99.90
47626;DHT22;33342;45.574;9.252;2022-08-23T00:17:19;28.60;99.90
47626;DHT22;33342;45.574;9.252;2022-08-23T00:19:59;28.60;99.90
47626;DHT22;33342;45.574;9.252;2022-08-23T00:22:27;28.60;99.90
47626;DHT22;33342;45.574;9.252;2022-08-23T00:24:54;28.50;99.90
47626;DHT22;33342;45.574;9.252;2022-08-23T00:27:21;28.50;99.90
47626;DHT22;33342;45.574;9.252;2022-08-23T00:29:50;28.50;99.90
47626;DHT22;33342;45.574;9.252;2022-08-23T00:32:21;28.40;99.90
47626;DHT22;33342;45.574;9.252;2022-08-23T00:34:49;28.50;99.90
47626;DHT22;33342;45.574;9.252;2022-08-23T00:37:18;28.40;99.90
47626;DHT22;33342;45.574;9.252;2022-08-23T00:39:46;28.40;99.90
47626;DHT22;33342;45.574;9.252;2022-08-23T00:42:42;28.40;99.90
47626;DHT22;33342;45.574;9.252;2022-08-23T00:46:27;28.40;99.90
47626;DHT22;33342;45.574;9.252;2022-08-23T00:48:54;28.40;99.90
47626;DHT22;33342;45.574;9.252;2022-08-23T00:51:56;28.40;99.90
47626;DHT22;33342;45.574;9.252;2022-08-23T00:54:26;28.30;99.90
47626;DHT22;33342;45.574;9.252;2022-08-23T00:56:56;28.30;99.90
47626;DHT22;33342;45.574;9.252;2022-08-23T00:59:25;28.30;99.90
47626;DHT22;33342;45.574;9.252;2022-08-23T01:01:52;28.30;99.90
47626;DHT22;33342;45.574;9.252;2022-08-23T01:04:20;28.30;99.90
47626;DHT22;33342;45.574;9.252;2022-08-23T01:06:54;28.30;99.90
47626;DHT22;33342;45.574;9.252;2022-08-23T01:09:24;28.20;99.90
47626;DHT22;33342;45.574;9.252;2022-08-23T01:14:42;28.20;99.90
47626;DHT22;33342;45.574;9.252;2022-08-23T01:19:57;28.20;99.90
47626;DHT22;33342;45.574;9.252;2022-08-23T01:22:43;28.10;99.90
47626;DHT22;33342;45.574;9.252;2022-08-23T01:25:16;28.10;99.90
47626;DHT22;33342;45.574;9.252;2022-08-23T01:27:45;28.10;99.90
47626;DHT22;33342;45.574;9.252;2022-08-23T01:30:20;28.10;99.90
47626;DHT22;33342;45.574;9.252;2022-08-23T01:32:56;28.10;99.90
47626;DHT22;33342;45.574;9.252;2022-08-23T01:35:36;28.10;99.90
47626;DHT22;33342;45.574;9.252;2022-08-23T01:38:07;28.00;99.90
47626;DHT22;33342;45.574;9.252;2022-08-23T01:40:36;28.00;99.90
47626;DHT22;33342;45.574;9.252;2022-08-23T01:43:04;28.00;99.90
47626;DHT22;33342;45.574;9.252;2022-08-23T01:45:32;28.00;99.90
47626;DHT22;33342;45.574;9.252;2022-08-23T01:48:02;28.00;99.90
47626;DHT22;33342;45.574;9.252;2022-08-23T01:50:30;28.00;99.90
47626;DHT22;33342;45.574;9.252;2022-08-23T01:52:58;27.90;99.90
47626;DHT22;33342;45.574;9.252;2022-08-23T01:55:27;27.90;99.90
47626;DHT22;33342;45.574;9.252;2022-08-23T01:57:57;27.90;99.90
47626;DHT22;33342;45.574;9.252;2022-08-23T02:00:31;27.80;99.90
47626;DHT22;33342;45.574;9.252;2022-08-23T02:03:00;27.70;99.90
47626;DHT22;33342;45.574;9.252;2022-08-23T02:05:29;27.70;99.90
47626;DHT22;33342;45.574;9.252;2022-08-23T02:07:57;27.70;99.90
47626;DHT22;33342;45.574;9.252;2022-08-23T02:10:49;27.60;99.90
47626;DHT22;33342;45.574;9.252;2022-08-23T02:13:18;27.60;99.90
47626;DHT22;33342;45.574;9.252;2022-08-23T02:15:47;27.60;99.90
47626;DHT22;33342;45.574;9.252;2022-08-23T02:18:19;27.60;99.90
47626;DHT22;33342;45.574;9.252;2022-08-23T02:20:49;27.60;99.90
47626;DHT22;33342;45.574;9.252;2022-08-23T02:23:18;27.60;99.90
47626;DHT22;33342;45.574;9.252;2022-08-23T02:25:45;27.50;99.90
47626;DHT22;33342;45.574;9.252;2022-08-23T02:28:13;27.50;99.90
47626;DHT22;33342;45.574;9.252;2022-08-23T02:30:40;27.50;99.90
47626;DHT22;33342;45.574;9.252;2022-08-23T02:33:11;27.50;99.90
47626;DHT22;33342;45.574;9.252;2022-08-23T02:35:41;27.50;99.90
47626;DHT22;33342;45.574;9.252;2022-08-23T02:38:10;27.50;99.90
47626;DHT22;33342;45.574;9.252;2022-08-23T02:40:39;27.50;99.90
47626;DHT22;33342;45.574;9.252;2022-08-23T02:43:06;27.50;99.90
47626;DHT22;33342;45.574;9.252;2022-08-23T02:45:35;27.50;99.90
47626;DHT22;33342;45.574;9.252;2022-08-23T02:48:03;27.40;99.90
47626;DHT22;33342;45.574;9.252;2022-08-23T02:50:40;27.50;99.90
47626;DHT22;33342;45.574;9.252;2022-08-23T02:53:08;27.50;99.90
47626;DHT22;33342;45.574;9.252;2022-08-23T02:55:35;27.40;99.90
47626;DHT22;33342;45.574;9.252;2022-08-23T02:58:02;27.40;99.90
47626;DHT22;33342;45.574;9.252;2022-08-23T03:00:31;27.40;99.90
47626;DHT22;33342;45.574;9.252;2022-08-23T03:02:58;27.30;99.90
47626;DHT22;33342;45.574;9.252;2022-08-23T03:05:25;27.30;99.90
47626;DHT22;33342;45.574;9.252;2022-08-23T03:07:53;27.20;99.90
47626;DHT22;33342;45.574;9.252;2022-08-23T03:10:21;27.20;99.90
47626;DHT22;33342;45.574;9.252;2022-08-23T03:12:54;27.20;99.90
47626;DHT22;33342;45.574;9.252;2022-08-23T03:15:21;27.20;99.90
47626;DHT22;33342;45.574;9.252;2022-08-23T03:17:49;27.20;99.90
47626;DHT22;33342;45.574;9.252;2022-08-23T03:20:17;27.20;99.90
47626;DHT22;33342;45.574;9.252;2022-08-23T03:22:46;27.10;99.90
47626;DHT22;33342;45.574;9.252;2022-08-23T03:25:22;27.10;99.90
47626;DHT22;33342;45.574;9.252;2022-08-23T03:28:08;27.10;99.90
47626;DHT22;33342;45.574;9.252;2022-08-23T03:30:40;27.10;99.90
47626;DHT22;33342;45.574;9.252;2022-08-23T03:33:08;27.10;99.90
47626;DHT22;33342;45.574;9.252;2022-08-23T03:35:35;27.00;99.90
47626;DHT22;33342;45.574;9.252;2022-08-23T03:38:03;27.00;99.90
47626;DHT22;33342;45.574;9.252;2022-08-23T03:40:30;27.00;99.90
47626;DHT22;33342;45.574;9.252;2022-08-23T03:42:59;27.00;99.90
47626;DHT22;33342;45.574;9.252;2022-08-23T03:45:28;26.90;99.90
47626;DHT22;33342;45.574;9.252;2022-08-23T03:47:55;26.90;99.90
47626;DHT22;33342;45.574;9.252;2022-08-23T03:50:23;26.90;99.90
47626;DHT22;33342;45.574;9.252;2022-08-23T03:52:51;26.90;99.90
47626;DHT22;33342;45.574;9.252;2022-08-23T03:55:19;26.90;99.90
47626;DHT22;33342;45.574;9.252;2022-08-23T03:57:48;26.80;99.90
47626;DHT22;33342;45.574;9.252;2022-08-23T04:00:18;26.90;99.90
47626;DHT22;33342;45.574;9.252;2022-08-23T04:02:48;26.90;99.90
47626;DHT22;33342;45.574;9.252;2022-08-23T04:05:15;26.80;99.90
47626;DHT22;33342;45.574;9.252;2022-08-23T04:08:10;26.80;99.90
47626;DHT22;33342;45.574;9.252;2022-08-23T04:10:40;26.90;99.90
47626;DHT22;33342;45.574;9.252;2022-08-23T04:13:07;26.80;99.90
47626;DHT22;33342;45.574;9.252;2022-08-23T04:15:35;26.80;99.90
47626;DHT22;33342;45.574;9.252;2022-08-23T04:18:04;26.80;99.90
47626;DHT22;33342;45.574;9.252;2022-08-23T04:20:32;26.80;99.90
47626;DHT22;33342;45.574;9.252;2022-08-23T04:23:03;26.80;99.90
47626;DHT22;33342;45.574;9.252;2022-08-23T04:25:41;26.70;99.90
47626;DHT22;33342;45.574;9.252;2022-08-23T04:28:11;26.70;99.90
47626;DHT22;33342;45.574;9.252;2022-08-23T04:30:38;26.70;99.90
47626;DHT22;33342;45.574;9.252;2022-08-23T04:33:08;26.70;99.90
47626;DHT22;33342;45.574;9.252;2022-08-23T04:35:39;26.70;99.90
47626;DHT22;33342;45.574;9.252;2022-08-23T04:38:08;26.70;99.90
47626;DHT22;33342;45.574;9.252;2022-08-23T04:40:53;26.70;99.90
47626;DHT22;33342;45.574;9.252;2022-08-23T04:43:41;26.60;99.90
47626;DHT22;33342;45.574;9.252;2022-08-23T04:46:12;26.60;99.90
47626;DHT22;33342;45.574;9.252;2022-08-23T04:48:47;26.60;99.90
47626;DHT22;33342;45.574;9.252;2022-08-23T04:51:16;26.60;99.90
47626;DHT22;33342;45.574;9.252;2022-08-23T04:53:43;26.60;99.90
47626;DHT22;33342;45.574;9.252;2022-08-23T04:56:39;26.70;99.90
47626;DHT22;33342;45.574;9.252;2022-08-23T04:59:08;26.70;99.90
47626;DHT22;33342;45.574;9.252;2022-08-23T05:01:40;26.70;99.90
47626;DHT22;33342;45.574;9.252;2022-08-23T05:04:08;26.70;99.90
47626;DHT22;33342;45.574;9.252;2022-08-23T05:06:38;26.70;99.90
47626;DHT22;33342;45.574;9.252;2022-08-23T05:09:05;26.70;99.90
47626;DHT22;33342;45.574;9.252;2022-08-23T05:11:34;26.70;99.90
47626;DHT22;33342;45.574;9.252;2022-08-23T05:14:01;26.70;99.90
47626;DHT22;33342;45.574;9.252;2022-08-23T05:16:29;26.70;99.90
47626;DHT22;33342;45.574;9.252;2022-08-23T05:19:02;26.70;99.90
47626;DHT22;33342;45.574;9.252;2022-08-23T05:21:32;26.60;99.90
47626;DHT22;33342;45.574;9.252;2022-08-23T05:24:00;26.60;99.90
47626;DHT22;33342;45.574;9.252;2022-08-23T05:26:30;26.60;99.90
47626;DHT22;33342;45.574;9.252;2022-08-23T05:28:57;26.60;99.90
47626;DHT22;33342;45.574;9.252;2022-08-23T05:31:29;26.60;99.90
47626;DHT22;33342;45.574;9.252;2022-08-23T05:34:01;26.60;99.90
47626;DHT22;33342;45.574;9.252;2022-08-23T05:36:54;26.60;99.90
47626;DHT22;33342;45.574;9.252;2022-08-23T05:39:38;26.60;99.90
47626;DHT22;33342;45.574;9.252;2022-08-23T05:42:08;26.60;99.90
47626;DHT22;33342;45.574;9.252;2022-08-23T05:44:35;26.60;99.90
47626;DHT22;33342;45.574;9.252;2022-08-23T05:47:06;26.60;99.90
47626;DHT22;33342;45.574;9.252;2022-08-23T05:49:57;26.60;99.90
47626;DHT22;33342;45.574;9.252;2022-08-23T05:52:28;26.60;99.90
47626;DHT22;33342;45.574;9.252;2022-08-23T05:54:55;26.60;99.90
47626;DHT22;33342;45.574;9.252;2022-08-23T05:57:43;26.60;99.90
47626;DHT22;33342;45.574;9.252;2022-08-23T06:00:11;26.60;99.90
47626;DHT22;33342;45.574;9.252;2022-08-23T06:02:51;26.60;99.90
47626;DHT22;33342;45.574;9.252;2022-08-23T06:05:19;26.70;99.90
47626;DHT22;33342;45.574;9.252;2022-08-23T06:07:48;26.60;99.90
47626;DHT22;33342;45.574;9.252;2022-08-23T06:10:18;26.70;99.90
47626;DHT22;33342;45.574;9.252;2022-08-23T06:12:53;26.70;99.90
47626;DHT22;33342;45.574;9.252;2022-08-23T06:15:21;26.70;99.90
47626;DHT22;33342;45.574;9.252;2022-08-23T06:17:48;26.70;99.90
47626;DHT22;33342;45.574;9.252;2022-08-23T06:20:15;26.70;99.90
47626;DHT22;33342;45.574;9.252;2022-08-23T06:23:05;26.70;99.90
47626;DHT22;33342;45.574;9.252;2022-08-23T06:25:37;26.70;99.90
47626;DHT22;33342;45.574;9.252;2022-08-23T06:28:16;26.80;99.90
47626;DHT22;33342;45.574;9.252;2022-08-23T06:30:45;26.80;99.90
47626;DHT22;33342;45.574;9.252;2022-08-23T06:33:41;26.80;99.90
47626;DHT22;33342;45.574;9.252;2022-08-23T06:36:47;26.80;99.90
47626;DHT22;33342;45.574;9.252;2022-08-23T06:39:36;26.90;99.90
47626;DHT22;33342;45.574;9.252;2022-08-23T06:42:23;26.80;99.90
47626;DHT22;33342;45.574;9.252;2022-08-23T06:45:08;27.00;99.90
47626;DHT22;33342;45.574;9.252;2022-08-23T06:47:41;26.90;99.90
47626;DHT22;33342;45.574;9.252;2022-08-23T06:50:09;26.90;99.90
47626;DHT22;33342;45.574;9.252;2022-08-23T06:52:54;27.00;99.90
47626;DHT22;33342;45.574;9.252;2022-08-23T06:55:42;27.00;99.90
47626;DHT22;33342;45.574;9.252;2022-08-23T06:58:20;27.10;99.90
47626;DHT22;33342;45.574;9.252;2022-08-23T07:01:30;27.10;99.90
47626;DHT22;33342;45.574;9.252;2022-08-23T07:04:39;27.10;99.90
47626;DHT22;33342;45.574;9.252;2022-08-23T07:07:27;27.20;99.90
47626;DHT22;33342;45.574;9.252;2022-08-23T07:10:12;27.20;99.90
47626;DHT22;33342;45.574;9.252;2022-08-23T07:12:42;27.20;99.90
47626;DHT22;33342;45.574;9.252;2022-08-23T07:15:12;27.20;99.90
47626;DHT22;33342;45.574;9.252;2022-08-23T07:17:43;27.30;99.90
47626;DHT22;33342;45.574;9.252;2022-08-23T07:20:10;27.30;99.90
47626;DHT22;33342;45.574;9.252;2022-08-23T07:22:40;27.30;99.90
47626;DHT22;33342;45.574;9.252;2022-08-23T07:25:08;27.30;99.90
47626;DHT22;33342;45.574;9.252;2022-08-23T07:27:37;27.30;99.90
47626;DHT22;33342;45.574;9.252;2022-08-23T07:30:07;27.30;99.90
47626;DHT22;33342;45.574;9.252;2022-08-23T07:32:37;27.30;99.90
47626;DHT22;33342;45.574;9.252;2022-08-23T07:35:15;27.40;99.90
47626;DHT22;33342;45.574;9.252;2022-08-23T07:37:43;27.40;99.90
47626;DHT22;33342;45.574;9.252;2022-08-23T07:40:11;27.40;99.90
47626;DHT22;33342;45.574;9.252;2022-08-23T07:42:49;27.40;99.90
47626;DHT22;33342;45.574;9.252;2022-08-23T07:45:17;27.40;99.90
47626;DHT22;33342;45.574;9.252;2022-08-23T07:47:52;27.40;99.90
47626;DHT22;33342;45.574;9.252;2022-08-23T07:50:21;27.40;99.90
47626;DHT22;33342;45.574;9.252;2022-08-23T07:52:49;27.40;99.90
47626;DHT22;33342;45.574;9.252;2022-08-23T07:55:17;27.40;99.90
47626;DHT22;33342;45.574;9.252;2022-08-23T07:58:04;27.50;99.90
47626;DHT22;33342;45.574;9.252;2022-08-23T08:00:46;27.50;99.90
47626;DHT22;33342;45.574;9.252;2022-08-23T08:03:41;27.50;99.90
47626;DHT22;33342;45.574;9.252;2022-08-23T08:06:25;27.50;99.90
47626;DHT22;33342;45.574;9.252;2022-08-23T08:08:52;27.50;99.90
47626;DHT22;33342;45.574;9.252;2022-08-23T08:11:22;27.50;99.90
47626;DHT22;33342;45.574;9.252;2022-08-23T08:13:53;27.50;99.90
47626;DHT22;33342;45.574;9.252;2022-08-23T08:16:27;27.60;99.90
47626;DHT22;33342;45.574;9.252;2022-08-23T08:18:57;27.60;99.90
47626;DHT22;33342;45.574;9.252;2022-08-23T08:21:44;27.60;99.90
47626;DHT22;33342;45.574;9.252;2022-08-23T08:24:40;27.60;99.90
47626;DHT22;33342;45.574;9.252;2022-08-23T08:27:11;27.60;99.90
47626;DHT22;33342;45.574;9.252;2022-08-23T08:29:38;27.60;99.90
47626;DHT22;33342;45.574;9.252;2022-08-23T08:32:06;27.60;99.90
47626;DHT22;33342;45.574;9.252;2022-08-23T08:34:40;27.60;99.90
47626;DHT22;33342;45.574;9.252;2022-08-23T08:37:08;27.60;99.90
47626;DHT22;33342;45.574;9.252;2022-08-23T08:39:35;27.60;99.90
47626;DHT22;33342;45.574;9.252;2022-08-23T08:45:26;27.70;99.90
47626;DHT22;33342;45.574;9.252;2022-08-23T08:48:05;27.70;99.90
47626;DHT22;33342;45.574;9.252;2022-08-23T08:50:52;27.70;99.90
47626;DHT22;33342;45.574;9.252;2022-08-23T08:53:29;27.70;99.90
47626;DHT22;33342;45.574;9.252;2022-08-23T08:56:27;27.70;99.90
47626;DHT22;33342;45.574;9.252;2022-08-23T09:02:18;27.80;99.90
47626;DHT22;33342;45.574;9.252;2022-08-23T09:05:02;27.80;99.90
47626;DHT22;33342;45.574;9.252;2022-08-23T09:17:14;27.80;99.90
47626;DHT22;33342;45.574;9.252;2022-08-23T09:19:33;27.80;99.90
47626;DHT22;33342;45.574;9.252;2022-08-23T09:22:14;27.90;99.90
47626;DHT22;33342;45.574;9.252;2022-08-23T09:24:43;27.90;99.90
47626;DHT22;33342;45.574;9.252;2022-08-23T09:27:20;27.90;99.90
47626;DHT22;33342;45.574;9.252;2022-08-23T09:29:56;27.90;99.90
47626;DHT22;33342;45.574;9.252;2022-08-23T09:32:28;27.90;99.90
47626;DHT22;33342;45.574;9.252;2022-08-23T09:35:17;27.90;99.90
47626;DHT22;33342;45.574;9.252;2022-08-23T09:38:02;28.00;99.90
47626;DHT22;33342;45.574;9.252;2022-08-23T09:40:47;28.00;99.90
47626;DHT22;33342;45.574;9.252;2022-08-23T09:43:19;28.00;99.90
47626;DHT22;33342;45.574;9.252;2022-08-23T09:48:42;28.00;99.90
47626;DHT22;33342;45.574;9.252;2022-08-23T09:51:30;28.00;99.90
47626;DHT22;33342;45.574;9.252;2022-08-23T09:54:06;28.00;99.90
47626;DHT22;33342;45.574;9.252;2022-08-23T09:56:41;28.00;99.90
47626;DHT22;33342;45.574;9.252;2022-08-23T09:59:47;28.10;99.90
47626;DHT22;33342;45.574;9.252;2022-08-23T10:02:32;28.10;99.90
47626;DHT22;33342;45.574;9.252;2022-08-23T10:05:37;28.20;99.90
47626;DHT22;33342;45.574;9.252;2022-08-23T10:08:09;28.20;99.90
47626;DHT22;33342;45.574;9.252;2022-08-23T10:10:50;28.20;99.90
47626;DHT22;33342;45.574;9.252;2022-08-23T10:13:30;28.20;99.90
47626;DHT22;33342;45.574;9.252;2022-08-23T10:25:02;28.20;99.90
47626;DHT22;33342;45.574;9.252;2022-08-23T10:33:15;28.30;99.90
47626;DHT22;33342;45.574;9.252;2022-08-23T10:36:09;28.30;99.90
47626;DHT22;33342;45.574;9.252;2022-08-23T10:38:47;28.30;99.90
47626;DHT22;33342;45.574;9.252;2022-08-23T10:41:39;28.40;99.90
47626;DHT22;33342;45.574;9.252;2022-08-23T10:47:15;28.40;99.90
47626;DHT22;33342;45.574;9.252;2022-08-23T10:49:47;28.40;99.90
47626;DHT22;33342;45.574;9.252;2022-08-23T10:52:21;28.40;99.90
47626;DHT22;33342;45.574;9.252;2022-08-23T10:54:54;28.50;99.90
47626;DHT22;33342;45.574;9.252;2022-08-23T10:57:38;28.50;99.90
47626;DHT22;33342;45.574;9.252;2022-08-23T11:00:16;28.50;99.90
47626;DHT22;33342;45.574;9.252;2022-08-23T11:03:07;28.50;99.90
47626;DHT22;33342;45.574;9.252;2022-08-23T11:05:37;28.60;99.90
47626;DHT22;33342;45.574;9.252;2022-08-23T11:08:34;28.60;99.90
47626;DHT22;33342;45.574;9.252;2022-08-23T11:11:31;28.60;99.90
47626;DHT22;33342;45.574;9.252;2022-08-23T11:13:59;28.60;99.90
47626;DHT22;33342;45.574;9.252;2022-08-23T11:16:30;28.60;99.90
47626;DHT22;33342;45.574;9.252;2022-08-23T11:18:58;28.70;99.90
47626;DHT22;33342;45.574;9.252;2022-08-23T11:31:41;28.70;99.90
47626;DHT22;33342;45.574;9.252;2022-08-23T11:34:24;28.80;99.90
47626;DHT22;33342;45.574;9.252;2022-08-23T11:42:43;28.80;99.90
47626;DHT22;33342;45.574;9.252;2022-08-23T11:48:35;28.90;99.90
47626;DHT22;33342;45.574;9.252;2022-08-23T12:01:44;29.00;99.90
47626;DHT22;33342;45.574;9.252;2022-08-23T12:04:37;29.10;99.90
47626;DHT22;33342;45.574;9.252;2022-08-23T12:07:07;29.10;99.90
47626;DHT22;33342;45.574;9.252;2022-08-23T12:12:24;29.20;99.90
47626;DHT22;33342;45.574;9.252;2022-08-23T12:14:57;29.20;99.90
47626;DHT22;33342;45.574;9.252;2022-08-23T12:20:21;29.20;99.90
47626;DHT22;33342;45.574;9.252;2022-08-23T12:23:10;29.30;99.90
47626;DHT22;33342;45.574;9.252;2022-08-23T12:25:39;29.30;99.90
47626;DHT22;33342;45.574;9.252;2022-08-23T12:31:00;29.40;99.90
47626;DHT22;33342;45.574;9.252;2022-08-23T12:37:05;29.40;99.90
47626;DHT22;33342;45.574;9.252;2022-08-23T12:39:40;29.50;99.90
47626;DHT22;33342;45.574;9.252;2022-08-23T12:42:16;29.50;99.90
47626;DHT22;33342;45.574;9.252;2022-08-23T12:44:57;29.50;99.90
47626;DHT22;33342;45.574;9.252;2022-08-23T12:47:25;29.60;99.90
47626;DHT22;33342;45.574;9.252;2022-08-23T12:50:00;29.60;99.90
47626;DHT22;33342;45.574;9.252;2022-08-23T12:52:32;29.60;99.90
47626;DHT22;33342;45.574;9.252;2022-08-23T12:55:15;29.60;99.90
47626;DHT22;33342;45.574;9.252;2022-08-23T12:57:52;29.60;99.90
47626;DHT22;33342;45.574;9.252;2022-08-23T13:03:13;29.70;99.90
47626;DHT22;33342;45.574;9.252;2022-08-23T13:05:45;29.80;99.90
47626;DHT22;33342;45.574;9.252;2022-08-23T13:08:17;29.80;99.90
47626;DHT22;33342;45.574;9.252;2022-08-23T13:11:04;29.80;99.90
47626;DHT22;33342;45.574;9.252;2022-08-23T13:13:37;29.90;99.90
47626;DHT22;33342;45.574;9.252;2022-08-23T13:16:28;29.90;99.90
47626;DHT22;33342;45.574;9.252;2022-08-23T13:19:37;30.00;99.90
47626;DHT22;33342;45.574;9.252;2022-08-23T13:27:54;30.10;99.90
47626;DHT22;33342;45.574;9.252;2022-08-23T13:30:33;30.20;99.90
47626;DHT22;33342;45.574;9.252;2022-08-23T13:35:45;30.20;99.90
47626;DHT22;33342;45.574;9.252;2022-08-23T13:38:24;30.20;99.90
47626;DHT22;33342;45.574;9.252;2022-08-23T13:41:05;30.30;99.90
47626;DHT22;33342;45.574;9.252;2022-08-23T13:43:45;30.40;99.90
47626;DHT22;33342;45.574;9.252;2022-08-23T13:46:17;30.40;99.90
47626;DHT22;33342;45.574;9.252;2022-08-23T13:49:05;30.40;99.90
47626;DHT22;33342;45.574;9.252;2022-08-23T13:54:11;30.50;99.90
47626;DHT22;33342;45.574;9.252;2022-08-23T13:56:47;30.60;99.90
47626;DHT22;33342;45.574;9.252;2022-08-23T13:59:30;30.60;99.90
47626;DHT22;33342;45.574;9.252;2022-08-23T14:02:10;30.70;99.90
47626;DHT22;33342;45.574;9.252;2022-08-23T14:04:41;30.70;99.90
47626;DHT22;33342;45.574;9.252;2022-08-23T14:07:09;30.80;99.90
47626;DHT22;33342;45.574;9.252;2022-08-23T14:09:37;30.80;99.90
47626;DHT22;33342;45.574;9.252;2022-08-23T14:12:09;30.80;99.90
47626;DHT22;33342;45.574;9.252;2022-08-23T14:14:39;30.80;99.90
47626;DHT22;33342;45.574;9.252;2022-08-23T14:17:06;30.90;99.90
47626;DHT22;33342;45.574;9.252;2022-08-23T14:19:38;30.90;99.90
47626;DHT22;33342;45.574;9.252;2022-08-23T14:22:25;31.00;99.90
47626;DHT22;33342;45.574;9.252;2022-08-23T14:24:52;31.00;99.90
47626;DHT22;33342;45.574;9.252;2022-08-23T14:27:20;31.10;99.90
47626;DHT22;33342;45.574;9.252;2022-08-23T14:29:47;31.10;99.90
47626;DHT22;33342;45.574;9.252;2022-08-23T14:32:14;31.10;99.90
47626;DHT22;33342;45.574;9.252;2022-08-23T14:34:41;31.10;99.90
47626;DHT22;33342;45.574;9.252;2022-08-23T14:37:08;31.20;99.90
47626;DHT22;33342;45.574;9.252;2022-08-23T14:39:55;31.20;99.90
47626;DHT22;33342;45.574;9.252;2022-08-23T14:42:23;31.20;99.90
47626;DHT22;33342;45.574;9.252;2022-08-23T14:44:50;31.30;99.90
47626;DHT22;33342;45.574;9.252;2022-08-23T14:47:20;31.30;99.90
47626;DHT22;33342;45.574;9.252;2022-08-23T14:49:47;31.30;99.90
47626;DHT22;33342;45.574;9.252;2022-08-23T14:52:20;31.40;99.90
47626;DHT22;33342;45.574;9.252;2022-08-23T14:54:48;31.50;99.90
47626;DHT22;33342;45.574;9.252;2022-08-23T14:57:15;31.50;99.90
47626;DHT22;33342;45.574;9.252;2022-08-23T14:59:45;31.60;99.90
47626;DHT22;33342;45.574;9.252;2022-08-23T15:02:15;31.60;99.90
47626;DHT22;33342;45.574;9.252;2022-08-23T15:04:44;31.60;99.90
47626;DHT22;33342;45.574;9.252;2022-08-23T15:07:11;31.60;99.90
47626;DHT22;33342;45.574;9.252;2022-08-23T15:09:50;31.60;99.90
47626;DHT22;33342;45.574;9.252;2022-08-23T15:12:20;31.70;99.90
47626;DHT22;33342;45.574;9.252;2022-08-23T15:15:17;31.70;99.90
47626;DHT22;33342;45.574;9.252;2022-08-23T15:17:50;31.70;99.90
47626;DHT22;33342;45.574;9.252;2022-08-23T15:20:20;31.70;99.90
47626;DHT22;33342;45.574;9.252;2022-08-23T15:22:48;31.80;99.90
47626;DHT22;33342;45.574;9.252;2022-08-23T15:25:23;31.80;99.90
47626;DHT22;33342;45.574;9.252;2022-08-23T15:27:51;31.80;99.90
47626;DHT22;33342;45.574;9.252;2022-08-23T15:30:19;31.90;99.90
47626;DHT22;33342;45.574;9.252;2022-08-23T15:32:48;31.90;99.90
47626;DHT22;33342;45.574;9.252;2022-08-23T15:35:24;32.00;99.90
47626;DHT22;33342;45.574;9.252;2022-08-23T15:37:54;32.00;99.90
47626;DHT22;33342;45.574;9.252;2022-08-23T15:40:22;32.00;99.90
47626;DHT22;33342;45.574;9.252;2022-08-23T15:42:54;32.00;99.90
47626;DHT22;33342;45.574;9.252;2022-08-23T15:45:21;32.10;99.90
47626;DHT22;33342;45.574;9.252;2022-08-23T15:47:51;32.10;99.90
47626;DHT22;33342;45.574;9.252;2022-08-23T15:50:22;32.10;99.90
47626;DHT22;33342;45.574;9.252;2022-08-23T15:52:50;32.20;99.90
47626;DHT22;33342;45.574;9.252;2022-08-23T15:55:17;32.20;99.90
47626;DHT22;33342;45.574;9.252;2022-08-23T15:57:47;32.20;99.90
47626;DHT22;33342;45.574;9.252;2022-08-23T16:00:17;32.20;99.90
47626;DHT22;33342;45.574;9.252;2022-08-23T16:02:45;32.20;99.90
47626;DHT22;33342;45.574;9.252;2022-08-23T16:05:32;32.20;99.90
47626;DHT22;33342;45.574;9.252;2022-08-23T16:07:59;32.30;99.90
47626;DHT22;33342;45.574;9.252;2022-08-23T16:10:26;32.30;99.90
47626;DHT22;33342;45.574;9.252;2022-08-23T16:12:54;32.30;99.90
47626;DHT22;33342;45.574;9.252;2022-08-23T16:15:21;32.30;99.90
47626;DHT22;33342;45.574;9.252;2022-08-23T16:17:48;32.30;99.90
47626;DHT22;33342;45.574;9.252;2022-08-23T16:20:16;32.30;99.90
47626;DHT22;33342;45.574;9.252;2022-08-23T16:22:43;32.30;99.90
47626;DHT22;33342;45.574;9.252;2022-08-23T16:25:10;32.30;99.90
47626;DHT22;33342;45.574;9.252;2022-08-23T16:27:37;32.40;99.90
47626;DHT22;33342;45.574;9.252;2022-08-23T16:30:05;32.30;99.90
47626;DHT22;33342;45.574;9.252;2022-08-23T16:32:35;32.40;99.90
47626;DHT22;33342;45.574;9.252;2022-08-23T16:35:03;32.40;99.90
47626;DHT22;33342;45.574;9.252;2022-08-23T16:37:31;32.50;99.90
47626;DHT22;33342;45.574;9.252;2022-08-23T16:39:58;32.50;99.90
47626;DHT22;33342;45.574;9.252;2022-08-23T16:42:25;32.60;99.90
47626;DHT22;33342;45.574;9.252;2022-08-23T16:44:52;32.70;99.90
47626;DHT22;33342;45.574;9.252;2022-08-23T16:47:19;33.00;99.90
47626;DHT22;33342;45.574;9.252;2022-08-23T16:49:46;33.30;99.90
47626;DHT22;33342;45.574;9.252;2022-08-23T16:52:14;33.60;99.90
47626;DHT22;33342;45.574;9.252;2022-08-23T16:54:41;33.90;99.90
47626;DHT22;33342;45.574;9.252;2022-08-23T16:57:08;34.00;99.90
47626;DHT22;33342;45.574;9.252;2022-08-23T16:59:35;34.20;99.90
47626;DHT22;33342;45.574;9.252;2022-08-23T17:02:06;34.40;99.90
47626;DHT22;33342;45.574;9.252;2022-08-23T17:04:37;34.70;99.90
47626;DHT22;33342;45.574;9.252;2022-08-23T17:07:04;35.00;99.90
47626;DHT22;33342;45.574;9.252;2022-08-23T17:09:32;35.20;99.90
47626;DHT22;33342;45.574;9.252;2022-08-23T17:11:59;35.20;99.90
47626;DHT22;33342;45.574;9.252;2022-08-23T17:14:26;35.10;99.90
47626;DHT22;33342;45.574;9.252;2022-08-23T17:16:54;34.90;99.90
47626;DHT22;33342;45.574;9.252;2022-08-23T17:19:22;34.70;99.90
47626;DHT22;33342;45.574;9.252;2022-08-23T17:21:49;34.60;99.90
47626;DHT22;33342;45.574;9.252;2022-08-23T17:24:16;34.40;99.90
47626;DHT22;33342;45.574;9.252;2022-08-23T17:26:43;34.30;99.90
47626;DHT22;33342;45.574;9.252;2022-08-23T17:29:10;34.10;99.90
47626;DHT22;33342;45.574;9.252;2022-08-23T17:31:38;34.00;99.90
47626;DHT22;33342;45.574;9.252;2022-08-23T17:34:05;33.90;99.90
47626;DHT22;33342;45.574;9.252;2022-08-23T17:37:02;33.70;99.90
47626;DHT22;33342;45.574;9.252;2022-08-23T17:39:29;33.60;99.90
47626;DHT22;33342;45.574;9.252;2022-08-23T17:41:57;33.50;99.90
47626;DHT22;33342;45.574;9.252;2022-08-23T17:44:24;33.40;99.90
47626;DHT22;33342;45.574;9.252;2022-08-23T17:46:51;33.30;99.90
47626;DHT22;33342;45.574;9.252;2022-08-23T17:49:19;33.30;99.90